Time;durP1;ratioP1;P1;durP2;ratioP2;P2;SDS_P1;SDS_P2;PMS_P1;PMS_P2;Temp;Humidity;BMP_temperature;BMP_pressure;BME280_temperature;BME280_humidity;BME280_pressure;Samples;Min_cycle;Max_cycle;Signal;HPM_P1;HPM_P2
2023/04/27 00:02:12;;;;;;;7.80;4.35;;;12.50;63.30;;;;;;5041249;28;20040;-73
2023/04/27 00:04:38;;;;;;;7.75;4.93;;;12.50;63.70;;;;;;5039022;28;20029;-74
2023/04/27 00:07:04;;;;;;;7.72;4.95;;;12.40;64.30;;;;;;5038199;28;20029;-73
2023/04/27 00:09:30;;;;;;;8.23;5.60;;;12.40;64.80;;;;;;5038062;28;20033;-73
2023/04/27 00:11:56;;;;;;;6.32;4.22;;;12.20;65.00;;;;;;5038283;28;20075;-74
2023/04/27 00:14:22;;;;;;;8.35;4.80;;;12.20;64.30;;;;;;5038065;28;20044;-74
2023/04/27 00:16:48;;;;;;;5.68;4.13;;;12.20;64.50;;;;;;5038292;28;20021;-73
2023/04/27 00:19:15;;;;;;;7.00;4.57;;;12.10;64.40;;;;;;5037101;28;20048;-73
2023/04/27 00:21:41;;;;;;;6.20;3.80;;;12.10;64.30;;;;;;5037004;28;20080;-73
2023/04/27 00:24:07;;;;;;;6.18;3.70;;;12.10;63.90;;;;;;5037579;28;20053;-73
2023/04/27 00:26:33;;;;;;;6.20;4.05;;;12.20;63.80;;;;;;5037833;28;20064;-74
2023/04/27 00:28:59;;;;;;;6.03;3.88;;;12.20;63.70;;;;;;5037736;28;20053;-73
2023/04/27 00:31:25;;;;;;;6.05;4.35;;;12.20;63.80;;;;;;5037786;28;20025;-74
2023/04/27 00:33:51;;;;;;;5.40;3.83;;;12.20;63.80;;;;;;5037892;28;20071;-74
2023/04/27 00:36:17;;;;;;;5.38;3.78;;;12.30;63.80;;;;;;5037657;28;20354;-74
2023/04/27 00:38:43;;;;;;;7.45;3.75;;;12.20;63.60;;;;;;5038110;28;20030;-74
2023/04/27 00:41:09;;;;;;;7.03;4.38;;;12.30;63.80;;;;;;5037571;28;20112;-73
2023/04/27 00:43:45;;;;;;;5.03;3.70;;;12.30;64.00;;;;;;5037455;28;20036;-73
2023/04/27 00:46:14;;;;;;;5.07;3.90;;;12.30;63.70;;;;;;5037485;28;20068;-74
2023/04/27 00:48:40;;;;;;;6.60;4.10;;;12.20;63.80;;;;;;5037857;28;20113;-73
2023/04/27 00:51:06;;;;;;;4.97;3.60;;;12.20;64.00;;;;;;5037946;28;20025;-74
2023/04/27 00:53:32;;;;;;;5.95;4.00;;;12.20;64.30;;;;;;5037790;28;20018;-73
2023/04/27 00:55:59;;;;;;;5.43;3.70;;;12.20;64.30;;;;;;5037558;28;20021;-74
2023/04/27 00:58:25;;;;;;;5.70;3.88;;;12.10;64.70;;;;;;5037737;28;20331;-74
2023/04/27 01:00:51;;;;;;;6.22;4.35;;;12.10;64.80;;;;;;5037157;28;20453;-74
2023/04/27 01:03:17;;;;;;;5.97;4.25;;;12.00;64.70;;;;;;5037106;28;20017;-74
2023/04/27 01:05:43;;;;;;;6.88;4.82;;;12.00;64.70;;;;;;5037108;28;20036;-74
2023/04/27 01:08:09;;;;;;;5.38;3.95;;;12.00;64.60;;;;;;5037079;28;20017;-74
2023/04/27 01:10:36;;;;;;;6.47;4.18;;;12.00;64.60;;;;;;5036873;28;20119;-74
2023/04/27 01:13:02;;;;;;;7.88;4.30;;;12.00;64.60;;;;;;5037156;28;20119;-73
2023/04/27 01:15:28;;;;;;;6.82;4.50;;;12.00;64.70;;;;;;5036994;28;20057;-74
2023/04/27 01:18:01;;;;;;;6.93;4.63;;;12.00;64.80;;;;;;5037397;28;20022;-74
2023/04/27 01:20:31;;;;;;;7.18;4.50;;;11.90;64.40;;;;;;5036828;28;20032;-74
2023/04/27 01:22:57;;;;;;;6.05;4.30;;;11.90;64.70;;;;;;5036464;28;20112;-74
2023/04/27 01:25:24;;;;;;;8.65;4.88;;;11.90;65.00;;;;;;5037287;28;20053;-74
2023/04/27 01:27:50;;;;;;;6.40;4.22;;;11.90;65.40;;;;;;5036641;28;20025;-74
2023/04/27 01:30:16;;;;;;;7.38;5.07;;;11.90;65.00;;;;;;5036803;28;20029;-74
2023/04/27 01:32:42;;;;;;;8.57;4.80;;;11.80;65.80;;;;;;5036516;28;20041;-73
2023/04/27 01:35:08;;;;;;;8.23;4.30;;;11.70;65.70;;;;;;5037054;28;20030;-74
2023/04/27 01:37:34;;;;;;;6.28;4.13;;;11.60;65.30;;;;;;5036784;28;20064;-74
2023/04/27 01:40:00;;;;;;;6.93;4.82;;;11.60;65.50;;;;;;5036757;28;20090;-74
2023/04/27 01:42:26;;;;;;;8.23;4.57;;;11.60;66.00;;;;;;5036321;28;20443;-74
2023/04/27 01:44:53;;;;;;;7.28;4.57;;;11.60;66.30;;;;;;5036611;28;20052;-74
2023/04/27 01:47:19;;;;;;;5.93;4.18;;;11.50;66.40;;;;;;5036574;28;20040;-74
2023/04/27 01:49:45;;;;;;;5.72;3.80;;;11.40;66.10;;;;;;5036414;28;20033;-74
2023/04/27 01:52:11;;;;;;;7.22;4.53;;;11.40;66.20;;;;;;5036167;28;20018;-74
2023/04/27 01:54:37;;;;;;;7.20;4.68;;;11.40;66.10;;;;;;5036718;28;20171;-74
2023/04/27 01:57:03;;;;;;;6.05;4.07;;;11.40;66.30;;;;;;5036632;28;20486;-74
2023/04/27 01:59:29;;;;;;;7.15;4.40;;;11.40;66.10;;;;;;5036067;28;20035;-74
2023/04/27 02:01:55;;;;;;;7.70;4.35;;;11.40;66.20;;;;;;5035018;28;20343;-74
2023/04/27 02:04:21;;;;;;;6.15;4.00;;;11.40;66.30;;;;;;5035940;28;20040;-74
2023/04/27 02:06:47;;;;;;;7.10;3.97;;;11.40;66.30;;;;;;5036540;28;20033;-74
2023/04/27 02:09:13;;;;;;;6.68;4.72;;;11.40;66.20;;;;;;5036119;28;20026;-74
2023/04/27 02:11:38;;;;;;;6.43;4.43;;;11.30;66.20;;;;;;5036190;28;20013;-74
2023/04/27 02:14:05;;;;;;;8.25;4.65;;;11.30;66.70;;;;;;5034899;28;20112;-74
2023/04/27 02:16:30;;;;;;;7.05;4.50;;;11.30;66.80;;;;;;5036031;28;20021;-74
2023/04/27 02:18:57;;;;;;;7.15;4.60;;;11.20;67.40;;;;;;5035179;28;20399;-74
2023/04/27 02:21:23;;;;;;;7.50;5.03;;;11.20;68.00;;;;;;5035677;28;20068;-74
2023/04/27 02:23:49;;;;;;;6.90;4.43;;;11.10;68.10;;;;;;5035491;28;20100;-74
2023/04/27 02:26:19;;;;;;;5.88;4.25;;;11.10;68.20;;;;;;5035699;28;20030;-74
2023/04/27 02:28:49;;;;;;;6.43;4.40;;;11.10;68.20;;;;;;5035017;28;20037;-74
2023/04/27 02:31:15;;;;;;;7.60;4.80;;;11.00;68.60;;;;;;5035846;28;20033;-74
2023/04/27 02:33:41;;;;;;;6.85;4.10;;;11.00;68.70;;;;;;5036000;28;20030;-74
2023/04/27 02:36:09;;;;;;;6.90;4.68;;;11.00;68.50;;;;;;5035823;28;20083;-74
2023/04/27 02:38:36;;;;;;;6.22;4.40;;;10.90;68.10;;;;;;5038305;28;20347;-74
2023/04/27 02:41:02;;;;;;;8.27;4.38;;;11.00;68.20;;;;;;5041402;28;20029;-74
2023/04/27 02:43:27;;;;;;;10.88;4.55;;;11.00;69.00;;;;;;5040511;28;20029;-74
2023/04/27 02:45:53;;;;;;;5.72;4.13;;;11.00;69.30;;;;;;5041164;28;20300;-75
2023/04/27 02:48:19;;;;;;;7.00;4.38;;;10.90;69.20;;;;;;5039498;28;20378;-75
2023/04/27 02:50:45;;;;;;;5.38;4.05;;;10.90;68.90;;;;;;5035412;28;20125;-74
2023/04/27 02:53:11;;;;;;;5.18;4.18;;;10.90;69.00;;;;;;5035258;28;20077;-74
2023/04/27 02:55:38;;;;;;;7.47;3.90;;;10.90;69.40;;;;;;5035847;28;20092;-74
2023/04/27 02:58:04;;;;;;;5.63;3.85;;;10.90;69.30;;;;;;5035828;28;20037;-74
2023/04/27 03:00:30;;;;;;;6.43;4.15;;;10.90;69.40;;;;;;5035311;28;20489;-74
2023/04/27 03:02:56;;;;;;;6.32;3.67;;;10.90;69.30;;;;;;5035475;28;20057;-74
2023/04/27 03:05:25;;;;;;;5.22;3.70;;;10.90;68.90;;;;;;5035219;28;20473;-74
2023/04/27 03:07:51;;;;;;;4.97;3.53;;;10.90;68.60;;;;;;5035472;28;20033;-74
2023/04/27 03:10:17;;;;;;;5.13;3.60;;;10.90;68.70;;;;;;5035103;28;20035;-74
2023/04/27 03:12:42;;;;;;;6.82;3.60;;;11.00;68.80;;;;;;5035420;28;20103;-74
2023/04/27 03:15:09;;;;;;;5.38;3.53;;;10.90;68.70;;;;;;5035184;28;20022;-74
2023/04/27 03:17:35;;;;;;;5.18;3.28;;;11.00;68.60;;;;;;5035679;28;20078;-74
2023/04/27 03:20:03;;;;;;;6.20;3.30;;;11.00;68.60;;;;;;5035370;28;20029;-74
2023/04/27 03:22:28;;;;;;;5.20;3.20;;;11.10;68.40;;;;;;5035098;28;20057;-74
2023/04/27 03:24:54;;;;;;;4.65;3.00;;;11.00;68.40;;;;;;5035277;28;20399;-74
2023/04/27 03:27:20;;;;;;;3.97;3.25;;;11.00;68.50;;;;;;5017712;28;20071;-74
2023/04/27 03:29:50;;;;;;;5.18;2.95;;;11.00;68.40;;;;;;5034928;28;20112;-74
2023/04/27 03:32:16;;;;;;;5.88;3.72;;;11.00;68.30;;;;;;5035678;28;20107;-74
2023/04/27 03:34:42;;;;;;;7.35;3.10;;;11.10;68.30;;;;;;5035475;28;20072;-74
2023/04/27 03:37:08;;;;;;;6.50;3.13;;;11.00;68.30;;;;;;5034924;28;20033;-74
2023/04/27 03:39:34;;;;;;;5.07;2.80;;;11.00;68.20;;;;;;5035250;28;20033;-74
2023/04/27 03:42:01;;;;;;;4.35;2.88;;;11.00;68.10;;;;;;5038544;28;20064;-74
2023/04/27 03:44:27;;;;;;;4.93;3.10;;;11.00;68.20;;;;;;5038878;28;20043;-74
2023/04/27 03:46:53;;;;;;;5.40;2.90;;;11.10;68.40;;;;;;5038604;28;20416;-74
2023/04/27 03:49:19;;;;;;;3.95;2.92;;;11.00;68.30;;;;;;5038494;28;20021;-74
2023/04/27 03:51:44;;;;;;;4.63;3.08;;;11.10;68.30;;;;;;5038394;28;20100;-74
2023/04/27 03:54:10;;;;;;;3.97;2.95;;;11.00;68.20;;;;;;5038748;28;20026;-74
2023/04/27 03:56:36;;;;;;;4.80;3.28;;;11.10;68.50;;;;;;5038438;28;20022;-74
2023/04/27 03:59:04;;;;;;;4.65;3.00;;;11.10;68.30;;;;;;5038374;28;20025;-74
2023/04/27 04:01:30;;;;;;;3.72;3.00;;;11.00;68.30;;;;;;5038316;28;20328;-74
2023/04/27 04:03:56;;;;;;;4.80;2.90;;;11.10;68.40;;;;;;5038194;28;20018;-74
2023/04/27 04:06:22;;;;;;;3.10;2.80;;;11.10;68.50;;;;;;5038794;28;20035;-74
2023/04/27 04:08:48;;;;;;;4.78;3.25;;;11.10;68.50;;;;;;5038669;28;20083;-74
2023/04/27 04:11:14;;;;;;;3.83;2.83;;;11.10;68.40;;;;;;5038395;28;20025;-74
2023/04/27 04:13:40;;;;;;;6.40;3.10;;;11.10;68.40;;;;;;5038071;28;20507;-74
2023/04/27 04:16:08;;;;;;;6.90;3.00;;;11.10;68.30;;;;;;5037990;28;20040;-74
2023/04/27 04:18:35;;;;;;;5.03;3.30;;;11.10;68.70;;;;;;5037991;28;20021;-74
2023/04/27 04:21:02;;;;;;;5.07;3.90;;;11.10;68.70;;;;;;5037978;28;20351;-74
2023/04/27 04:23:28;;;;;;;5.57;4.07;;;11.10;68.70;;;;;;5037577;28;20045;-74
2023/04/27 04:25:57;;;;;;;4.55;3.63;;;11.10;68.60;;;;;;5037534;28;20018;-74
2023/04/27 04:28:23;;;;;;;5.10;3.22;;;11.20;68.80;;;;;;5037726;28;20029;-74
2023/04/27 04:30:50;;;;;;;3.53;3.08;;;11.20;69.10;;;;;;5037766;28;20029;-74
2023/04/27 04:33:17;;;;;;;6.97;2.92;;;11.20;68.70;;;;;;5037631;28;20328;-74
2023/04/27 04:35:43;;;;;;;5.53;3.40;;;11.20;68.90;;;;;;5038211;28;20021;-74
2023/04/27 04:38:10;;;;;;;4.95;3.42;;;11.30;69.60;;;;;;5037026;28;20032;-74
2023/04/27 04:40:37;;;;;;;4.57;3.53;;;11.20;69.60;;;;;;5037878;28;20034;-74
2023/04/27 04:43:04;;;;;;;5.47;3.13;;;11.30;69.60;;;;;;5037454;28;20028;-74
2023/04/27 04:45:30;;;;;;;6.80;3.53;;;11.30;69.70;;;;;;5037532;28;20030;-74
2023/04/27 04:47:56;;;;;;;7.43;3.60;;;11.40;69.50;;;;;;5037471;28;20097;-74
2023/04/27 04:50:22;;;;;;;5.50;3.22;;;11.40;69.40;;;;;;5037089;28;20417;-74
2023/04/27 04:52:49;;;;;;;6.57;3.22;;;11.40;69.70;;;;;;5037331;28;20431;-74
2023/04/27 04:55:15;;;;;;;4.70;3.33;;;11.50;69.70;;;;;;5037349;28;20443;-74
2023/04/27 04:57:40;;;;;;;6.22;3.45;;;11.60;69.60;;;;;;5037510;28;20071;-74
2023/04/27 05:00:13;;;;;;;5.65;3.90;;;11.80;69.60;;;;;;5037735;28;20025;-74
2023/04/27 05:02:40;;;;;;;8.55;4.68;;;12.10;69.60;;;;;;5037647;28;20378;-74
2023/04/27 05:05:06;;;;;;;5.43;3.45;;;12.60;69.30;;;;;;5037091;28;20040;-74
2023/04/27 05:07:33;;;;;;;7.55;4.63;;;13.10;68.90;;;;;;5037094;28;20111;-74
2023/04/27 05:09:59;;;;;;;10.18;5.70;;;13.70;67.50;;;;;;5036928;28;20029;-74
2023/04/27 05:12:25;;;;;;;7.97;5.30;;;14.20;66.30;;;;;;5037082;28;20028;-75
2023/04/27 05:14:52;;;;;;;10.40;5.05;;;14.60;65.30;;;;;;5037207;28;20041;-75
2023/04/27 05:17:18;;;;;;;8.60;5.50;;;15.20;64.40;;;;;;5036887;28;20021;-75
2023/04/27 05:19:44;;;;;;;7.75;4.65;;;15.80;62.50;;;;;;5037394;28;20029;-75
2023/04/27 05:22:10;;;;;;;6.35;4.20;;;16.50;62.40;;;;;;5036775;28;20029;-75
2023/04/27 05:24:36;;;;;;;4.22;3.25;;;17.10;59.70;;;;;;5037298;28;20060;-75
2023/04/27 05:27:02;;;;;;;4.95;3.38;;;17.60;58.90;;;;;;5036751;28;20431;-74
2023/04/27 05:29:28;;;;;;;9.55;3.80;;;18.30;57.00;;;;;;5036488;28;20040;-74
2023/04/27 05:31:55;;;;;;;5.75;3.08;;;18.80;56.00;;;;;;5036462;28;20327;-74
2023/04/27 05:34:21;;;;;;;5.30;3.15;;;19.40;55.00;;;;;;5036774;28;20033;-74
2023/04/27 05:36:46;;;;;;;5.53;3.10;;;19.90;52.20;;;;;;5035537;28;20323;-74
2023/04/27 05:39:13;;;;;;;6.10;3.30;;;20.30;51.20;;;;;;5036253;28;20045;-74
2023/04/27 05:41:39;;;;;;;9.40;4.07;;;20.80;50.30;;;;;;5036412;28;20029;-73
2023/04/27 05:44:05;;;;;;;4.72;3.42;;;21.20;48.80;;;;;;5036511;28;20091;-73
2023/04/27 05:46:32;;;;;;;6.32;3.20;;;21.50;47.80;;;;;;5036847;28;20061;-73
2023/04/27 05:48:58;;;;;;;4.63;3.33;;;21.90;47.60;;;;;;5036714;28;20032;-73
2023/04/27 05:51:25;;;;;;;3.90;3.13;;;22.20;48.30;;;;;;5036251;28;20022;-73
2023/04/27 05:53:54;;;;;;;6.68;4.05;;;22.60;48.00;;;;;;5035197;28;20044;-75
2023/04/27 05:56:21;;;;;;;5.20;3.60;;;23.00;47.50;;;;;;5036160;28;20446;-74
2023/04/27 05:58:47;;;;;;;5.47;3.78;;;23.30;46.60;;;;;;5036658;28;20029;-74
2023/04/27 06:01:13;;;;;;;5.53;3.50;;;23.50;44.70;;;;;;5036588;28;20342;-74
2023/04/27 06:03:39;;;;;;;7.07;3.50;;;23.80;44.30;;;;;;5035365;28;20176;-74
2023/04/27 06:06:05;;;;;;;6.22;3.80;;;23.90;43.20;;;;;;5036009;28;20478;-75
2023/04/27 06:08:31;;;;;;;4.53;3.30;;;24.10;42.80;;;;;;5035841;28;20048;-74
2023/04/27 06:10:57;;;;;;;5.32;3.80;;;24.20;42.60;;;;;;5035869;28;20014;-74
2023/04/27 06:13:23;;;;;;;4.45;3.50;;;24.40;41.60;;;;;;5036319;28;20049;-74
2023/04/27 06:15:49;;;;;;;4.13;3.13;;;24.40;41.60;;;;;;5036138;28;20041;-74
2023/04/27 06:18:15;;;;;;;5.18;3.60;;;24.40;41.70;;;;;;5035749;28;20108;-74
2023/04/27 06:20:41;;;;;;;6.25;3.60;;;24.40;41.10;;;;;;5035718;28;20064;-74
2023/04/27 06:23:07;;;;;;;5.35;3.67;;;24.50;41.30;;;;;;5035491;28;20071;-74
2023/04/27 06:25:34;;;;;;;4.07;3.40;;;24.40;40.80;;;;;;5035913;28;20446;-74
2023/04/27 06:28:00;;;;;;;6.13;4.20;;;24.50;40.90;;;;;;5035546;28;20343;-74
2023/04/27 06:30:26;;;;;;;4.75;3.20;;;24.50;40.20;;;;;;5035523;28;20044;-74
2023/04/27 06:32:52;;;;;;;4.95;3.65;;;24.60;41.30;;;;;;5035443;28;20029;-74
2023/04/27 06:35:18;;;;;;;5.03;3.63;;;24.70;40.80;;;;;;5034580;28;20021;-74
2023/04/27 06:37:44;;;;;;;5.22;4.00;;;24.60;39.50;;;;;;5035495;28;20056;-74
2023/04/27 06:40:11;;;;;;;5.75;3.85;;;24.50;39.40;;;;;;5036068;28;20351;-74
2023/04/27 06:42:36;;;;;;;5.25;3.65;;;24.40;39.90;;;;;;5037329;28;20390;-74
2023/04/27 06:45:04;;;;;;;4.72;3.38;;;24.30;39.80;;;;;;5038949;28;20534;-74
2023/04/27 06:47:30;;;;;;;5.70;3.83;;;24.20;40.60;;;;;;5038361;28;20030;-74
2023/04/27 06:49:56;;;;;;;4.70;3.38;;;24.10;39.40;;;;;;5035663;28;20045;-74
2023/04/27 06:52:22;;;;;;;4.53;3.67;;;23.80;39.70;;;;;;5035630;28;20017;-72
2023/04/27 06:54:48;;;;;;;5.25;3.53;;;23.70;40.00;;;;;;5035538;28;20029;-72
2023/04/27 06:57:14;;;;;;;4.60;3.70;;;23.50;41.20;;;;;;5035098;28;20046;-74
2023/04/27 06:59:40;;;;;;;4.85;3.53;;;23.30;41.10;;;;;;5035110;28;20468;-73
2023/04/27 07:02:07;;;;;;;7.15;4.13;;;23.20;42.00;;;;;;5035265;28;20026;-73
2023/04/27 07:04:33;;;;;;;4.22;3.03;;;23.00;40.80;;;;;;5034283;28;20125;-73
2023/04/27 07:06:59;;;;;;;4.15;2.97;;;22.70;40.40;;;;;;5035554;28;20033;-73
2023/04/27 07:09:25;;;;;;;3.10;2.72;;;22.50;40.50;;;;;;5035058;28;20036;-73
2023/04/27 07:11:50;;;;;;;3.30;2.90;;;22.40;40.80;;;;;;5034751;28;20029;-73
2023/04/27 07:14:16;;;;;;;3.55;2.80;;;22.10;41.10;;;;;;5036134;28;20101;-73
2023/04/27 07:16:43;;;;;;;3.47;2.90;;;21.90;41.80;;;;;;5037162;28;20035;-73
2023/04/27 07:19:09;;;;;;;5.00;3.60;;;21.80;41.90;;;;;;5038763;28;20390;-73
2023/04/27 07:21:35;;;;;;;3.65;3.05;;;21.60;41.00;;;;;;5039028;28;20465;-73
2023/04/27 07:24:02;;;;;;;4.43;2.97;;;21.40;41.80;;;;;;5038916;28;20057;-73
2023/04/27 07:26:30;;;;;;;5.70;3.47;;;21.40;42.40;;;;;;5038920;28;20476;-73
2023/04/27 07:28:57;;;;;;;4.18;2.80;;;21.20;41.60;;;;;;5038827;28;20455;-73
2023/04/27 07:31:23;;;;;;;4.38;3.58;;;20.90;41.10;;;;;;5038926;28;20029;-73
2023/04/27 07:33:50;;;;;;;4.53;3.15;;;20.90;41.80;;;;;;5038855;28;20028;-73
2023/04/27 07:36:16;;;;;;;5.95;3.75;;;20.90;41.60;;;;;;5039084;28;20103;-73
2023/04/27 07:38:43;;;;;;;4.40;3.28;;;20.90;42.30;;;;;;5038752;28;20013;-73
2023/04/27 07:41:09;;;;;;;4.75;3.45;;;20.90;42.30;;;;;;5038957;28;20039;-73
2023/04/27 07:43:35;;;;;;;3.55;2.90;;;20.90;42.60;;;;;;5038600;28;20427;-73
2023/04/27 07:46:02;;;;;;;4.05;3.15;;;20.80;42.20;;;;;;5038842;28;20030;-73
2023/04/27 07:48:28;;;;;;;6.68;3.30;;;20.90;42.20;;;;;;5038829;28;20029;-73
2023/04/27 07:50:54;;;;;;;4.97;3.05;;;20.90;41.50;;;;;;5038372;28;20025;-73
2023/04/27 07:53:20;;;;;;;4.68;3.20;;;20.90;41.50;;;;;;5038531;28;20496;-73
2023/04/27 07:55:46;;;;;;;4.43;3.70;;;21.00;41.30;;;;;;5038669;28;20052;-73
2023/04/27 07:58:12;;;;;;;4.35;3.22;;;21.00;41.30;;;;;;5038397;28;20447;-73
2023/04/27 08:00:38;;;;;;;3.42;2.90;;;21.00;41.20;;;;;;5038298;28;20082;-73
2023/04/27 08:03:04;;;;;;;4.38;3.33;;;21.00;41.50;;;;;;5038250;28;20033;-73
2023/04/27 08:05:30;;;;;;;6.32;2.90;;;21.10;42.00;;;;;;5038267;28;20018;-73
2023/04/27 08:07:56;;;;;;;3.05;2.60;;;21.00;39.50;;;;;;5038510;28;20423;-73
2023/04/27 08:10:22;;;;;;;4.88;3.00;;;21.00;39.40;;;;;;5038085;28;20032;-73
2023/04/27 08:12:48;;;;;;;5.22;2.83;;;20.90;39.10;;;;;;5038321;28;20037;-73
2023/04/27 08:15:15;;;;;;;4.22;2.92;;;21.00;40.00;;;;;;5038100;28;20052;-73
2023/04/27 08:17:41;;;;;;;4.07;3.20;;;21.00;40.00;;;;;;5037997;28;20087;-73
2023/04/27 08:20:10;;;;;;;4.40;3.17;;;21.10;39.60;;;;;;5038539;28;20021;-73
2023/04/27 08:22:37;;;;;;;3.63;3.20;;;21.10;39.20;;;;;;5038187;28;20032;-72
2023/04/27 08:25:03;;;;;;;6.13;3.72;;;21.10;38.20;;;;;;5037784;28;20041;-73
2023/04/27 08:27:30;;;;;;;3.83;3.00;;;21.10;39.10;;;;;;5037671;28;20092;-73
2023/04/27 08:29:57;;;;;;;3.83;2.80;;;21.00;39.90;;;;;;5037704;28;20358;-73
2023/04/27 08:32:23;;;;;;;4.35;3.05;;;21.10;40.20;;;;;;5038434;28;20029;-72
2023/04/27 08:34:49;;;;;;;4.93;3.75;;;21.20;40.20;;;;;;5038218;28;20434;-71
2023/04/27 08:37:17;;;;;;;4.43;3.20;;;21.20;40.10;;;;;;5037593;28;20018;-72
2023/04/27 08:39:43;;;;;;;5.25;3.97;;;21.20;40.10;;;;;;5036660;28;20128;-73
2023/04/27 08:42:13;;;;;;;4.47;3.25;;;21.10;39.10;;;;;;5036689;28;20105;-73
2023/04/27 08:44:40;;;;;;;6.13;3.60;;;21.10;40.10;;;;;;5037584;28;20092;-72
2023/04/27 08:47:07;;;;;;;3.45;3.10;;;21.10;40.10;;;;;;5037525;28;20037;-73
2023/04/27 08:49:34;;;;;;;4.63;3.45;;;21.10;39.20;;;;;;5037395;28;20068;-73
2023/04/27 08:52:00;;;;;;;4.32;3.35;;;21.10;39.30;;;;;;5037886;28;20028;-73
2023/04/27 08:54:26;;;;;;;5.15;3.53;;;21.10;39.70;;;;;;5037885;28;20029;-73
2023/04/27 08:56:52;;;;;;;4.63;3.58;;;21.10;40.30;;;;;;5037840;28;20082;-73
2023/04/27 08:59:18;;;;;;;5.82;4.10;;;21.00;39.80;;;;;;5037269;28;20029;-73
2023/04/27 09:01:48;;;;;;;6.07;3.45;;;21.00;39.60;;;;;;5038259;28;20029;-73
2023/04/27 09:04:15;;;;;;;4.40;2.80;;;21.00;38.50;;;;;;5037181;28;20092;-73
2023/04/27 09:06:41;;;;;;;3.97;2.85;;;21.00;39.10;;;;;;5037415;28;20060;-73
2023/04/27 09:09:07;;;;;;;4.53;2.40;;;21.00;39.00;;;;;;5037258;28;20101;-73
2023/04/27 09:11:36;;;;;;;4.20;2.70;;;21.00;39.50;;;;;;5037028;28;20037;-73
2023/04/27 09:14:17;;;;;;;5.57;2.85;;;21.20;40.40;;;;;;5036846;28;20029;-73
2023/04/27 09:16:43;;;;;;;3.13;2.80;;;21.20;38.90;;;;;;5037529;28;20022;-73
2023/04/27 09:19:09;;;;;;;2.85;2.20;;;21.30;39.20;;;;;;5036913;28;20076;-73
2023/04/27 09:21:35;;;;;;;2.80;1.90;;;21.20;38.80;;;;;;5036766;28;20049;-73
2023/04/27 09:24:19;;;;;;;2.53;1.55;;;21.30;39.60;;;;;;5036429;28;20064;-73
2023/04/27 09:26:48;;;;;;;5.07;2.47;;;21.40;38.40;;;;;;5037281;28;20323;-73
2023/04/27 09:29:15;;;;;;;2.00;1.70;;;21.40;36.50;;;;;;5036613;28;20025;-73
2023/04/27 09:31:41;;;;;;;2.00;1.20;;;21.30;37.10;;;;;;5036714;28;20040;-73
2023/04/27 09:34:06;;;;;;;1.45;1.30;;;21.40;38.20;;;;;;5036531;28;20079;-72
2023/04/27 09:36:33;;;;;;;2.38;1.50;;;21.40;37.90;;;;;;5036679;28;20022;-72
2023/04/27 09:39:05;;;;;;;1.90;1.10;;;21.40;37.90;;;;;;5036514;28;20033;-73
2023/04/27 09:41:40;;;;;;;5.20;1.42;;;21.50;37.60;;;;;;5037068;28;20495;-76
2023/04/27 09:44:07;;;;;;;1.30;1.20;;;21.50;37.00;;;;;;5036151;28;20451;-73
2023/04/27 09:46:33;;;;;;;2.80;1.73;;;21.60;37.00;;;;;;5036242;28;20087;-72
2023/04/27 09:49:03;;;;;;;3.42;1.65;;;21.70;37.70;;;;;;5036784;28;20029;-72
2023/04/27 09:51:30;;;;;;;3.13;1.67;;;21.70;37.80;;;;;;5036200;28;20022;-72
2023/04/27 09:54:00;;;;;;;1.65;1.00;;;21.80;36.50;;;;;;5035212;28;20100;-74
2023/04/27 09:56:39;;;;;;;2.35;1.30;;;21.80;36.40;;;;;;5036381;28;20017;-73
2023/04/27 09:59:28;;;;;;;1.42;1.00;;;21.80;34.30;;;;;;5036444;28;20025;-73
2023/04/27 10:01:57;;;;;;;2.67;1.38;;;21.80;34.10;;;;;;5036268;28;20328;-73
2023/04/27 10:04:48;;;;;;;1.88;1.40;;;21.70;34.50;;;;;;5036253;28;20052;-72
2023/04/27 10:07:15;;;;;;;2.42;1.50;;;21.60;34.10;;;;;;5036515;28;20435;-72
2023/04/27 10:09:50;;;;;;;1.33;1.15;;;21.60;35.10;;;;;;5034894;28;20037;-72
2023/04/27 10:12:27;;;;;;;1.35;1.25;;;21.60;34.90;;;;;;5036025;28;20105;-72
2023/04/27 10:14:57;;;;;;;1.85;1.30;;;21.60;35.90;;;;;;5036114;28;20026;-72
2023/04/27 10:17:35;;;;;;;2.30;1.60;;;21.50;34.30;;;;;;5036338;28;20121;-73
2023/04/27 10:20:06;;;;;;;2.30;1.30;;;21.60;35.10;;;;;;5036027;28;20099;-72
2023/04/27 10:22:43;;;;;;;1.98;1.40;;;21.60;34.90;;;;;;5034393;28;20399;-72
2023/04/27 10:25:16;;;;;;;1.63;1.15;;;21.50;35.50;;;;;;5035977;28;20041;-72
2023/04/27 10:27:43;;;;;;;2.70;1.35;;;21.50;34.60;;;;;;5036668;28;20056;-72
2023/04/27 10:30:12;;;;;;;4.10;1.60;;;21.50;36.40;;;;;;5035494;28;20057;-72
2023/04/27 10:32:53;;;;;;;1.85;1.45;;;21.60;37.10;;;;;;5035733;28;20024;-72
2023/04/27 10:35:23;;;;;;;1.38;1.20;;;21.60;36.00;;;;;;5034558;28;20350;-72
2023/04/27 10:37:50;;;;;;;1.52;1.10;;;21.70;36.60;;;;;;5035463;28;20058;-73
2023/04/27 10:40:16;;;;;;;1.15;1.10;;;21.80;35.70;;;;;;5035380;28;20388;-72
2023/04/27 10:42:44;;;;;;;1.90;1.38;;;21.80;36.20;;;;;;5035268;28;20354;-71
2023/04/27 10:45:12;;;;;;;1.95;1.35;;;21.70;35.80;;;;;;5036005;28;20045;-72
2023/04/27 10:47:41;;;;;;;1.90;1.52;;;21.70;35.60;;;;;;5035360;28;20048;-72
2023/04/27 10:50:17;;;;;;;1.60;1.10;;;21.70;35.30;;;;;;5035093;28;20331;-73
2023/04/27 10:52:43;;;;;;;2.47;1.55;;;21.80;36.20;;;;;;5034443;28;20446;-73
2023/04/27 10:55:17;;;;;;;1.80;1.70;;;21.80;35.10;;;;;;5034438;28;20076;-72
2023/04/27 10:57:50;;;;;;;1.88;1.55;;;21.80;35.80;;;;;;5035883;28;20049;-72
2023/04/27 11:00:26;;;;;;;2.47;1.40;;;21.80;33.30;;;;;;5035277;28;20130;-72
2023/04/27 11:02:54;;;;;;;1.55;1.30;;;21.70;35.30;;;;;;5035485;28;20080;-73
2023/04/27 11:05:23;;;;;;;2.47;1.60;;;21.70;35.90;;;;;;5035486;28;20064;-73
2023/04/27 11:07:50;;;;;;;3.17;1.65;;;21.60;33.90;;;;;;5035160;28;20362;-73
2023/04/27 11:10:19;;;;;;;1.65;1.30;;;21.50;33.60;;;;;;5035409;28;20470;-73
2023/04/27 11:12:46;;;;;;;1.63;1.45;;;21.60;34.70;;;;;;5035131;28;20032;-73
2023/04/27 11:15:13;;;;;;;1.83;1.48;;;21.50;34.50;;;;;;5035165;28;20025;-73
2023/04/27 11:17:39;;;;;;;1.60;1.50;;;21.50;34.20;;;;;;5035032;28;20025;-73
2023/04/27 11:20:07;;;;;;;1.75;1.27;;;21.50;34.50;;;;;;5035035;28;20029;-73
2023/04/27 11:22:34;;;;;;;2.00;1.50;;;21.50;35.10;;;;;;5034658;28;20045;-72
2023/04/27 11:25:01;;;;;;;1.30;1.20;;;21.50;36.00;;;;;;5035657;28;20036;-73
2023/04/27 11:27:38;;;;;;;1.63;1.52;;;21.60;35.50;;;;;;5035274;28;20029;-73
2023/04/27 11:30:06;;;;;;;1.60;1.50;;;21.70;36.40;;;;;;5035280;28;20037;-73
2023/04/27 11:32:32;;;;;;;3.30;1.90;;;21.70;37.30;;;;;;5034871;28;20061;-73
2023/04/27 11:34:58;;;;;;;2.78;1.80;;;21.70;37.50;;;;;;5034944;28;20064;-73
2023/04/27 11:37:26;;;;;;;2.00;1.75;;;21.80;37.70;;;;;;5034984;28;20061;-73
2023/04/27 11:39:53;;;;;;;1.30;1.20;;;21.80;37.90;;;;;;5035166;28;20047;-73
2023/04/27 11:42:27;;;;;;;4.95;1.40;;;21.80;37.00;;;;;;5035305;28;20030;-73
2023/04/27 11:45:04;;;;;;;2.53;1.10;;;21.90;37.50;;;;;;5034870;28;20044;-73
2023/04/27 11:47:32;;;;;;;1.65;1.30;;;21.90;37.10;;;;;;5035149;28;20071;-73
2023/04/27 11:50:06;;;;;;;1.33;1.08;;;21.90;36.70;;;;;;5035005;28;20041;-73
2023/04/27 11:52:33;;;;;;;1.98;1.40;;;21.90;36.40;;;;;;5034697;28;20034;-73
2023/04/27 11:55:00;;;;;;;1.30;1.00;;;22.00;36.40;;;;;;5034804;28;20025;-73
2023/04/27 11:57:28;;;;;;;1.75;1.08;;;22.00;36.20;;;;;;5034760;28;20032;-73
2023/04/27 11:59:57;;;;;;;1.30;1.17;;;22.00;36.00;;;;;;5035007;28;20057;-73
2023/04/27 12:02:23;;;;;;;1.10;1.08;;;22.00;36.10;;;;;;5037574;28;20030;-73
2023/04/27 12:04:50;;;;;;;1.05;0.98;;;22.00;35.90;;;;;;5039770;28;20021;-73
2023/04/27 12:07:16;;;;;;;1.27;1.17;;;22.00;35.60;;;;;;5039892;28;20044;-73
2023/04/27 12:09:43;;;;;;;1.67;1.13;;;22.10;36.30;;;;;;5039398;28;20057;-73
2023/04/27 12:12:10;;;;;;;3.45;1.85;;;22.20;36.60;;;;;;5038049;28;20025;-73
2023/04/27 12:14:36;;;;;;;1.80;1.70;;;22.20;37.10;;;;;;5037114;28;20021;-73
2023/04/27 12:17:02;;;;;;;1.70;1.60;;;22.20;36.20;;;;;;5038058;28;20072;-73
2023/04/27 12:19:29;;;;;;;2.45;1.30;;;22.00;36.10;;;;;;5038038;28;20029;-73
2023/04/27 12:21:56;;;;;;;2.50;1.60;;;22.10;36.60;;;;;;5038158;28;20034;-73
2023/04/27 12:24:22;;;;;;;1.70;1.30;;;22.20;36.40;;;;;;5037615;28;20056;-73
2023/04/27 12:26:48;;;;;;;2.80;1.88;;;22.20;37.00;;;;;;5038413;28;20038;-73
2023/04/27 12:29:14;;;;;;;2.05;1.63;;;22.30;35.90;;;;;;5038010;28;20037;-73
2023/04/27 12:31:41;;;;;;;1.70;1.60;;;22.30;35.20;;;;;;5037806;28;20064;-73
2023/04/27 12:34:07;;;;;;;2.53;1.80;;;22.30;35.80;;;;;;5036765;28;20034;-73
2023/04/27 12:36:33;;;;;;;1.98;1.60;;;22.30;35.90;;;;;;5038276;28;20045;-73
2023/04/27 12:39:13;;;;;;;3.25;2.35;;;22.30;36.50;;;;;;5038215;28;20346;-73
2023/04/27 12:41:40;;;;;;;3.10;2.30;;;22.40;36.80;;;;;;5037971;28;20032;-73
2023/04/27 12:44:06;;;;;;;4.00;1.92;;;22.40;36.30;;;;;;5037513;28;20014;-73
2023/04/27 12:46:32;;;;;;;2.33;1.70;;;22.40;37.30;;;;;;5038072;28;20037;-73